createdAt,value
2023-05-21T00:00:24.128Z,102220.53
2023-05-21T00:03:47.150Z,102224.81
2023-05-21T00:07:09.668Z,102215.25
2023-05-21T00:10:31.686Z,102215.25
2023-05-21T00:13:54.842Z,102223.09
2023-05-21T00:17:18.141Z,102219.69
2023-05-21T00:20:41.904Z,102220.66
2023-05-21T00:24:03.770Z,102217.41
2023-05-21T00:27:25.844Z,102234.84
2023-05-21T00:30:48.934Z,102234.19
2023-05-21T00:34:11.068Z,102229.13
2023-05-21T00:37:34.413Z,102228.38
2023-05-21T00:40:56.187Z,102230.31
2023-05-21T00:44:19.424Z,102228.72
2023-05-21T00:47:44.695Z,102234.91
2023-05-21T00:51:07.585Z,102235.88
2023-05-21T00:54:30.210Z,102230.00
2023-05-21T00:57:52.107Z,102239.56
2023-05-21T01:01:14.847Z,102244.91
2023-05-21T01:04:38.644Z,102236.22
2023-05-21T01:08:00.707Z,102232.84
2023-05-21T01:11:23.223Z,102238.06
2023-05-21T01:14:46.205Z,102247.72
2023-05-21T01:18:09.778Z,102244.31
2023-05-21T01:21:37.587Z,102212.41
2023-05-21T01:25:02.856Z,102245.31
2023-05-21T01:28:24.759Z,102245.34
2023-05-21T01:32:00.175Z,102251.53
2023-05-21T01:35:26.799Z,102247.25
2023-05-21T01:38:55.538Z,102251.56
2023-05-21T01:42:21.064Z,102253.34
2023-05-21T01:45:45.504Z,102249.97
2023-05-21T01:49:09.094Z,102256.16
2023-05-21T01:52:31.390Z,102245.88
2023-05-21T01:55:54.666Z,102251.09
2023-05-21T01:59:18.586Z,102247.66
2023-05-21T02:02:40.481Z,102246.84
2023-05-21T02:06:02.884Z,102246.88
2023-05-21T02:09:24.753Z,102250.34
2023-05-21T02:12:46.524Z,102247.75
2023-05-21T02:16:11.891Z,102245.13
2023-05-21T02:19:33.985Z,102239.06
2023-05-21T02:22:56.172Z,102244.25
2023-05-21T02:26:18.740Z,102246.84
2023-05-21T02:29:40.692Z,102248.59
2023-05-21T02:33:03.907Z,102223.59
2023-05-21T02:36:26.747Z,102233.88
2023-05-21T02:39:48.703Z,102233.81
2023-05-21T02:43:10.789Z,102236.38
2023-05-21T02:46:32.581Z,102239.75
2023-05-21T02:49:56.155Z,102230.13
2023-05-21T02:53:17.873Z,102243.78
2023-05-21T02:56:39.708Z,102237.56
2023-05-21T03:00:01.442Z,102232.34
2023-05-21T03:03:23.657Z,102240.03
2023-05-21T03:06:47.293Z,102246.78
2023-05-21T03:10:09.902Z,102239.44
2023-05-21T03:13:31.789Z,102239.75
2023-05-21T03:16:53.687Z,102231.38
2023-05-21T03:20:18.891Z,102245.34
2023-05-21T03:23:42.801Z,102241.16
2023-05-21T03:27:06.651Z,102243.94
2023-05-21T03:30:28.635Z,102241.41
2023-05-21T03:33:51.331Z,102232.81
2023-05-21T03:37:13.419Z,102237.06
2023-05-21T03:40:36.797Z,102244.75
2023-05-21T03:43:58.894Z,102234.03
2023-05-21T03:47:21.024Z,102223.63
2023-05-21T03:50:43.510Z,102231.31
2023-05-21T03:54:05.899Z,102228.03
2023-05-21T03:57:29.702Z,102233.59
2023-05-21T04:00:51.556Z,102233.63
2023-05-21T04:04:13.399Z,102227.47
2023-05-21T04:07:38.426Z,102222.31
2023-05-21T04:11:00.441Z,102216.47
2023-05-21T04:14:24.223Z,102221.59
2023-05-21T04:17:46.304Z,102220.16
2023-05-21T04:21:07.934Z,102219.03
2023-05-21T04:24:29.634Z,102207.53
2023-05-21T04:27:51.550Z,102214.53
2023-05-21T04:31:15.317Z,102214.50
2023-05-21T04:34:36.961Z,102217.00
2023-05-21T04:37:58.704Z,102222.97
2023-05-21T04:41:21.441Z,102221.09
2023-05-21T04:44:44.698Z,102225.50
2023-05-21T04:48:08.381Z,102221.38
2023-05-21T04:51:30.673Z,102219.47
2023-05-21T04:54:54.326Z,102221.47
2023-05-21T04:58:18.155Z,102210.00
2023-05-21T05:01:40.079Z,102212.97
2023-05-21T05:05:03.523Z,102221.59
2023-05-21T05:08:25.987Z,102215.78
2023-05-21T05:11:48.022Z,102217.44
2023-05-21T05:15:11.100Z,102219.63
2023-05-21T05:18:34.203Z,102213.69
2023-05-21T05:21:57.544Z,102212.25
2023-05-21T05:25:20.032Z,102209.25
2023-05-21T05:28:41.856Z,102210.63
2023-05-21T05:32:04.023Z,102211.84
2023-05-21T05:35:25.996Z,102196.34
2023-05-21T05:38:49.177Z,102209.03
2023-05-21T05:42:11.330Z,102207.72
2023-05-21T05:45:33.206Z,102204.84
2023-05-21T05:48:55.213Z,102199.41
2023-05-21T05:52:17.199Z,102206.13
2023-05-21T05:55:40.306Z,102198.59
2023-05-21T05:59:02.286Z,102182.19
2023-05-21T06:02:24.250Z,102189.84
2023-05-21T06:05:46.490Z,102183.91
2023-05-21T06:09:08.231Z,102188.50
2023-05-21T06:12:31.374Z,102197.56
2023-05-21T06:15:54.539Z,102192.78
2023-05-21T06:19:16.552Z,102197.91
2023-05-21T06:22:38.555Z,102194.13
2023-05-21T06:26:00.911Z,102191.50
2023-05-21T06:29:24.456Z,102183.75
2023-05-21T06:32:46.667Z,102182.56
2023-05-21T06:36:09.232Z,102175.06
2023-05-21T06:39:31.209Z,102186.34
2023-05-21T06:42:53.093Z,102173.22
2023-05-21T06:46:16.681Z,102173.72
2023-05-21T06:49:38.630Z,102174.72
2023-05-21T06:53:00.831Z,102161.78
2023-05-21T06:56:22.998Z,102175.81
2023-05-21T06:59:44.952Z,102170.28
2023-05-21T07:03:08.483Z,102182.66
2023-05-21T07:06:30.645Z,102171.03
2023-05-21T07:09:52.626Z,102172.53
2023-05-21T07:13:14.713Z,102162.19
2023-05-21T07:16:36.459Z,102161.25
2023-05-21T07:19:59.413Z,102161.59
2023-05-21T07:23:22.174Z,102154.09
2023-05-21T07:26:44.233Z,102148.25
2023-05-21T07:30:07.188Z,102136.78
2023-05-21T07:33:29.766Z,102135.34
2023-05-21T07:36:53.003Z,102137.41
2023-05-21T07:40:15.457Z,102134.84
2023-05-21T07:43:37.933Z,102116.38
2023-05-21T07:47:00.133Z,102128.88
2023-05-21T07:50:22.507Z,102127.88
2023-05-21T07:53:46.052Z,102125.88
2023-05-21T07:57:08.135Z,102120.50
2023-05-21T08:00:30.166Z,102126.00
2023-05-21T08:03:52.075Z,102127.41
2023-05-21T08:07:17.087Z,102125.69
2023-05-21T08:10:40.356Z,102118.88
2023-05-21T08:14:02.569Z,102116.69
2023-05-21T08:17:24.652Z,102119.28
2023-05-21T08:20:46.566Z,102112.88
2023-05-21T08:24:08.518Z,102108.09
2023-05-21T08:27:31.934Z,102081.50
2023-05-21T08:30:54.051Z,102109.47
2023-05-21T08:34:16.683Z,102105.75
2023-05-21T08:37:38.652Z,102092.94
2023-05-21T08:41:01.360Z,102097.50
2023-05-21T08:44:28.597Z,102097.06
2023-05-21T08:47:56.556Z,102094.16
2023-05-21T08:51:18.705Z,102092.94
2023-05-21T08:54:41.029Z,102088.78
2023-05-21T08:58:05.755Z,102086.56
2023-05-21T09:01:29.678Z,102074.22
2023-05-21T09:04:57.176Z,102068.03
2023-05-21T09:08:21.259Z,102075.34
2023-05-21T09:11:43.942Z,102075.00
2023-05-21T09:15:07.242Z,102071.94
2023-05-21T09:18:30.496Z,102064.03
2023-05-21T09:21:53.374Z,102068.53
2023-05-21T09:25:17.254Z,102057.56
2023-05-21T09:28:39.316Z,102046.41
2023-05-21T09:32:08.215Z,102051.06
2023-05-21T09:35:31.552Z,102038.09
2023-05-21T09:38:53.551Z,102035.56
2023-05-21T09:42:16.423Z,102046.53
2023-05-21T09:45:38.669Z,102036.94
2023-05-21T09:49:00.708Z,102030.34
2023-05-21T09:52:28.391Z,102031.44
2023-05-21T09:55:56.681Z,102037.47
2023-05-21T09:59:18.952Z,102033.69
2023-05-21T10:02:45.886Z,102034.97
2023-05-21T10:06:10.202Z,102038.97
2023-05-21T10:09:33.805Z,102025.78
2023-05-21T10:13:00.139Z,102026.75
2023-05-21T10:16:22.707Z,102020.63
2023-05-21T10:19:45.893Z,102024.84
2023-05-21T10:23:08.668Z,102028.88
2023-05-21T10:26:32.574Z,102023.78
2023-05-21T10:29:58.507Z,102013.94
2023-05-21T10:33:21.672Z,102012.53
2023-05-21T10:36:45.157Z,102016.41
2023-05-21T10:40:08.822Z,102019.06
2023-05-21T10:43:49.450Z,102024.41
2023-05-21T10:47:31.341Z,102014.88
2023-05-21T10:51:11.124Z,102014.56
2023-05-21T10:54:54.519Z,102016.06
2023-05-21T10:58:43.193Z,101999.88
2023-05-21T11:02:08.236Z,102009.25
2023-05-21T11:05:54.004Z,102009.06
2023-05-21T11:09:17.156Z,101996.88
2023-05-21T11:13:13.659Z,101999.66
2023-05-21T11:16:37.550Z,101992.09
2023-05-21T11:20:05.882Z,101991.47
2023-05-21T11:23:52.734Z,101979.50
2023-05-21T11:27:14.946Z,101972.38
2023-05-21T11:30:37.804Z,101973.81
2023-05-21T11:34:14.162Z,101968.53
2023-05-21T11:37:40.732Z,101972.44
2023-05-21T11:41:04.455Z,101970.50
2023-05-21T11:44:41.050Z,101962.63
2023-05-21T11:48:03.786Z,101964.28
2023-05-21T11:51:26.368Z,101965.59
2023-05-21T11:54:52.067Z,101966.94
2023-05-21T11:58:16.678Z,101958.22
2023-05-21T12:01:39.498Z,101954.75
2023-05-21T12:05:04.023Z,101962.13
2023-05-21T12:08:27.186Z,101951.44
2023-05-21T12:11:51.529Z,101936.50
2023-05-21T12:15:15.148Z,101942.09
2023-05-21T12:18:38.291Z,101943.44
2023-05-21T12:22:02.509Z,101946.34
2023-05-21T12:25:24.693Z,101944.16
2023-05-21T12:28:48.993Z,101942.97
2023-05-21T12:32:12.821Z,101948.66
2023-05-21T12:35:34.727Z,101939.94
2023-05-21T12:38:56.468Z,101934.34
2023-05-21T12:42:25.650Z,101937.06
2023-05-21T12:45:48.874Z,101938.53
2023-05-21T12:49:38.028Z,101934.44
2023-05-21T12:53:00.044Z,101931.78
2023-05-21T12:56:22.638Z,101931.06
2023-05-21T12:59:53.230Z,101922.81
2023-05-21T13:06:44.877Z,101917.59
2023-05-21T13:10:07.357Z,101916.00
2023-05-21T13:13:29.722Z,101905.53
2023-05-21T13:16:52.081Z,101912.19
2023-05-21T13:20:18.514Z,101903.34
2023-05-21T13:23:40.341Z,101906.75
2023-05-21T13:27:02.340Z,101907.00
2023-05-21T13:30:24.227Z,101901.75
2023-05-21T13:33:46.094Z,101904.09
2023-05-21T13:37:09.604Z,101903.97
2023-05-21T13:40:31.868Z,101891.47
2023-05-21T13:43:53.721Z,101891.88
2023-05-21T13:47:15.835Z,101892.34
2023-05-21T13:50:37.799Z,101883.28
2023-05-21T13:54:01.232Z,101889.69
2023-05-21T13:57:23.604Z,101880.44
2023-05-21T14:00:45.733Z,101884.31
2023-05-21T14:04:08.476Z,101882.47
2023-05-21T14:07:31.107Z,101875.28
2023-05-21T14:10:54.471Z,101876.84
2023-05-21T14:14:19.194Z,101874.16
2023-05-21T14:17:42.584Z,101876.09
2023-05-21T14:21:04.647Z,101866.53
2023-05-21T14:24:26.504Z,101860.00
2023-05-21T14:27:49.680Z,101855.34
2023-05-21T14:31:11.773Z,101855.84
2023-05-21T14:34:33.865Z,101859.00
2023-05-21T14:37:55.990Z,101850.53
2023-05-21T14:41:17.989Z,101848.47
2023-05-21T14:44:41.472Z,101854.91
2023-05-21T14:48:08.629Z,101845.91
2023-05-21T14:51:31.691Z,101835.56
2023-05-21T14:54:53.705Z,101836.06
2023-05-21T14:58:15.609Z,101837.19
2023-05-21T15:01:38.955Z,101837.97
2023-05-21T15:05:02.245Z,101838.09
2023-05-21T15:08:24.007Z,101831.72
2023-05-21T15:11:46.291Z,101834.13
2023-05-21T15:15:09.269Z,101833.06
2023-05-21T15:18:32.427Z,101831.72
2023-05-21T15:21:54.520Z,101828.47
2023-05-21T15:25:19.325Z,101814.88
2023-05-21T15:28:41.301Z,101820.44
2023-05-21T15:32:05.359Z,101820.56
2023-05-21T15:35:28.925Z,101814.03
2023-05-21T15:38:50.828Z,101811.22
2023-05-21T15:42:13.192Z,101813.63
2023-05-21T15:45:35.354Z,101802.72
2023-05-21T15:48:57.297Z,101809.78
2023-05-21T15:52:21.631Z,101803.81
2023-05-21T15:59:05.253Z,101799.88
2023-05-21T16:02:27.363Z,101786.09
2023-05-21T16:05:49.290Z,101793.22
2023-05-21T16:09:15.296Z,101789.56
2023-05-21T16:12:37.148Z,101780.13
2023-05-21T16:15:58.973Z,101783.75
2023-05-21T16:19:21.205Z,101791.53
2023-05-21T16:22:43.022Z,101781.88
2023-05-21T16:26:06.874Z,101785.41
2023-05-21T16:29:28.631Z,101786.78
2023-05-21T16:32:50.548Z,101791.50
2023-05-21T16:36:12.434Z,101796.00
2023-05-21T16:39:34.285Z,101791.09
2023-05-21T16:43:00.486Z,101788.19
2023-05-21T16:46:23.670Z,101792.25
2023-05-21T16:49:45.311Z,101784.94
2023-05-21T16:53:09.904Z,101776.75
2023-05-21T16:56:32.054Z,101775.19
2023-05-21T16:59:55.366Z,101774.16
2023-05-21T17:03:17.461Z,101777.78
2023-05-21T17:06:39.063Z,101775.81
2023-05-21T17:10:01.241Z,101778.00
2023-05-21T17:13:23.501Z,101777.97
2023-05-21T17:16:47.142Z,101773.53
2023-05-21T17:20:10.395Z,101780.66
2023-05-21T17:23:32.111Z,101773.72
2023-05-21T17:26:54.173Z,101777.19
2023-05-21T17:30:16.395Z,101762.75
2023-05-21T17:33:40.807Z,101777.19
2023-05-21T17:37:03.037Z,101770.78
2023-05-21T17:40:25.360Z,101779.69
2023-05-21T17:43:47.458Z,101778.13
2023-05-21T17:47:09.872Z,101776.81
2023-05-21T17:50:34.388Z,101779.91
2023-05-21T17:53:57.279Z,101773.75
2023-05-21T17:57:20.519Z,101773.53
2023-05-21T18:00:43.102Z,101780.06
2023-05-21T18:04:06.146Z,101784.06
2023-05-21T18:07:29.915Z,101777.06
2023-05-21T18:10:52.120Z,101766.00
2023-05-21T18:14:14.393Z,101778.41
2023-05-21T18:17:36.275Z,101772.66
2023-05-21T18:20:58.109Z,101772.28
2023-05-21T18:24:22.380Z,101776.16
2023-05-21T18:27:44.364Z,101773.91
2023-05-21T18:31:06.143Z,101783.53
2023-05-21T18:34:28.653Z,101781.94
2023-05-21T18:37:50.339Z,101776.69
2023-05-21T18:41:13.626Z,101779.25
2023-05-21T18:44:35.810Z,101777.53
2023-05-21T18:47:57.472Z,101774.88
2023-05-21T18:51:19.317Z,101777.31
2023-05-21T18:54:41.755Z,101783.53
2023-05-21T18:58:05.273Z,101776.22
2023-05-21T19:01:28.116Z,101777.72
2023-05-21T19:04:50.085Z,101774.19
2023-05-21T19:08:12.101Z,101778.00
2023-05-21T19:11:35.017Z,101779.28
2023-05-21T19:14:58.541Z,101783.53
2023-05-21T19:18:20.739Z,101783.38
2023-05-21T19:21:42.801Z,101778.75
2023-05-21T19:25:05.613Z,101787.38
2023-05-21T19:28:28.373Z,101782.75
2023-05-21T19:31:55.197Z,101784.44
2023-05-21T19:35:17.366Z,101789.38
2023-05-21T19:38:40.170Z,101779.38
2023-05-21T19:42:02.814Z,101778.25
2023-05-21T19:45:25.539Z,101782.41
2023-05-21T19:48:49.308Z,101776.91
2023-05-21T19:52:12.241Z,101772.38
2023-05-21T19:55:36.973Z,101773.44
2023-05-21T19:58:59.206Z,101773.91
2023-05-21T20:02:23.364Z,101766.72
2023-05-21T20:05:46.594Z,101768.88
2023-05-21T20:09:10.969Z,101764.97
2023-05-21T20:12:33.093Z,101761.16
2023-05-21T20:15:54.811Z,101765.00
2023-05-21T20:19:16.882Z,101760.28
2023-05-21T20:22:40.057Z,101766.81
2023-05-21T20:26:02.015Z,101758.47
2023-05-21T20:29:23.797Z,101756.00
2023-05-21T20:32:48.455Z,101759.06
2023-05-21T20:36:10.627Z,101756.72
2023-05-21T20:39:33.983Z,101755.28
2023-05-21T20:42:56.309Z,101756.53
2023-05-21T20:46:18.577Z,101756.13
2023-05-21T20:49:40.487Z,101758.19
2023-05-21T20:53:02.719Z,101773.47
2023-05-21T20:56:40.738Z,101771.31
2023-05-21T21:00:05.431Z,101766.59
2023-05-21T21:03:29.855Z,101766.06
2023-05-21T21:06:52.038Z,101765.63
2023-05-21T21:10:14.164Z,101764.28
2023-05-21T21:13:37.847Z,101766.38
2023-05-21T21:16:59.822Z,101763.34
2023-05-21T21:20:21.790Z,101767.88
2023-05-21T21:23:43.864Z,101755.28
2023-05-21T21:27:06.189Z,101767.56
2023-05-21T21:30:29.151Z,101770.47
2023-05-21T21:33:51.078Z,101769.84
2023-05-21T21:37:13.642Z,101774.44
2023-05-21T21:40:35.568Z,101766.78
2023-05-21T21:43:57.511Z,101772.16
2023-05-21T21:47:20.822Z,101761.78
2023-05-21T21:50:42.825Z,101764.50
2023-05-21T21:54:04.889Z,101759.47
2023-05-21T21:57:29.500Z,101756.34
2023-05-21T22:00:51.428Z,101761.16
2023-05-21T22:04:14.727Z,101766.81
2023-05-21T22:07:38.906Z,101764.72
2023-05-21T22:11:01.464Z,101762.53
2023-05-21T22:14:23.470Z,101762.06
2023-05-21T22:17:45.709Z,101766.69
2023-05-21T22:21:10.183Z,101765.19
2023-05-21T22:24:33.381Z,101764.69
2023-05-21T22:27:55.656Z,101760.56
2023-05-21T22:31:17.862Z,101759.16
2023-05-21T22:34:39.497Z,101731.00
2023-05-21T22:38:03.023Z,101756.91
2023-05-21T22:41:25.079Z,101758.81
2023-05-21T22:44:46.822Z,101761.63
2023-05-21T22:48:08.793Z,101758.28
2023-05-21T22:51:34.960Z,101750.66
2023-05-21T22:55:00.759Z,101756.13
2023-05-21T22:58:22.640Z,101759.00
2023-05-21T23:01:44.970Z,101743.53
2023-05-21T23:05:09.727Z,101745.50
2023-05-21T23:08:31.728Z,101742.22
2023-05-21T23:11:55.379Z,101739.72
2023-05-21T23:15:17.672Z,101740.84
2023-05-21T23:18:40.287Z,101715.19
2023-05-21T23:22:02.502Z,101746.13
2023-05-21T23:25:24.229Z,101730.66
2023-05-21T23:28:47.733Z,101743.69
2023-05-21T23:32:10.158Z,101734.41
2023-05-21T23:35:31.865Z,101741.56
2023-05-21T23:38:53.792Z,101726.38
2023-05-21T23:42:15.749Z,101731.72
2023-05-21T23:45:38.781Z,101720.56
2023-05-21T23:49:00.628Z,101731.13
2023-05-21T23:52:24.255Z,101728.66
2023-05-21T23:55:45.907Z,101715.75
2023-05-21T23:59:07.754Z,101727.97
